Time;durP1;ratioP1;P1;durP2;ratioP2;P2;SDS_P1;SDS_P2;PMS_P1;PMS_P2;Temp;Humidity;BMP_temperature;BMP_pressure;BME280_temperature;BME280_humidity;BME280_pressure;Samples;Min_cycle;Max_cycle;Signal;HPM_P1;HPM_P2
2021/07/25 00:02:05;;;;;;;13.93;7.95;;;;;;;19.72;100.00;96156.47;5042303;28;20182;-63
2021/07/25 00:04:31;;;;;;;11.07;7.82;;;;;;;19.86;100.00;96152.66;5041809;28;20189;-63
2021/07/25 00:06:57;;;;;;;17.67;8.52;;;;;;;20.03;100.00;96169.84;5037321;28;20202;-63
2021/07/25 00:09:22;;;;;;;10.13;8.00;;;;;;;19.89;100.00;96161.94;5047900;28;20191;-63
2021/07/25 00:11:48;;;;;;;12.93;7.70;;;;;;;19.88;100.00;96161.13;5034814;28;20188;-63
2021/07/25 00:14:13;;;;;;;11.10;8.68;;;;;;;19.90;100.00;96144.84;5043983;28;20753;-66
2021/07/25 00:16:39;;;;;;;10.18;8.05;;;;;;;19.84;100.00;96141.53;5032465;28;20185;-66
2021/07/25 00:19:04;;;;;;;10.60;7.50;;;;;;;20.04;100.00;96137.63;5031786;28;20221;-64
2021/07/25 00:21:29;;;;;;;10.25;8.10;;;;;;;19.95;100.00;96128.78;5047714;28;20193;-63
2021/07/25 00:23:58;;;;;;;8.52;7.05;;;;;;;20.02;100.00;96123.03;5034741;28;20239;-63
2021/07/25 00:26:27;;;;;;;11.30;7.45;;;;;;;19.98;100.00;96128.19;5041812;28;20235;-63
2021/07/25 00:28:53;;;;;;;9.15;7.15;;;;;;;19.99;100.00;96121.78;5041246;28;20670;-63
2021/07/25 00:31:18;;;;;;;9.35;7.25;;;;;;;20.04;100.00;96121.66;5047638;28;20182;-63
2021/07/25 00:33:44;;;;;;;10.25;7.47;;;;;;;20.17;100.00;96125.34;5034205;28;20639;-63
2021/07/25 00:36:09;;;;;;;10.63;7.82;;;;;;;20.05;100.00;96117.13;5044850;28;20213;-63
2021/07/25 00:38:35;;;;;;;9.63;7.18;;;;;;;20.01;100.00;96116.13;5032587;28;20638;-63
2021/07/25 00:41:15;;;;;;;9.35;7.18;;;;;;;20.11;100.00;96121.25;5044196;28;20213;-63
2021/07/25 00:43:41;;;;;;;10.15;7.38;;;;;;;20.10;100.00;96140.94;5033985;28;20576;-66
2021/07/25 00:46:07;;;;;;;9.38;6.93;;;;;;;19.89;100.00;96138.75;5044247;28;20218;-62
2021/07/25 00:48:35;;;;;;;9.82;7.47;;;;;;;19.79;100.00;96141.66;5034697;28;20221;-63
2021/07/25 00:51:00;;;;;;;9.38;6.70;;;;;;;19.85;100.00;96148.41;5037412;28;20198;-62
2021/07/25 00:53:26;;;;;;;8.38;6.38;;;;;;;19.75;100.00;96159.28;5046175;28;20185;-63
2021/07/25 00:55:52;;;;;;;10.07;6.82;;;;;;;19.77;100.00;96157.13;5033745;28;20646;-63
2021/07/25 00:58:18;;;;;;;9.77;6.85;;;;;;;19.83;100.00;96152.47;5050374;28;20189;-62
2021/07/25 01:00:44;;;;;;;8.43;6.97;;;;;;;19.80;100.00;96148.53;5038145;28;20210;-63
2021/07/25 01:03:22;;;;;;;9.20;6.53;;;;;;;19.80;100.00;96140.56;5030458;28;20183;-62
2021/07/25 01:05:59;;;;;;;8.80;7.22;;;;;;;19.88;100.00;96139.84;5049030;28;20277;-62
2021/07/25 01:08:48;;;;;;;16.15;7.97;;;;;;;19.75;100.00;96130.03;5046466;28;20212;-63
2021/07/25 01:11:14;;;;;;;10.52;6.85;;;;;;;19.78;100.00;96120.69;5038724;28;20183;-62
2021/07/25 01:13:42;;;;;;;11.45;8.15;;;;;;;19.82;100.00;96121.66;5030959;28;20232;-64
2021/07/25 01:16:08;;;;;;;9.25;7.88;;;;;;;19.80;100.00;96116.63;5045235;28;20185;-63
2021/07/25 01:18:44;;;;;;;15.80;9.30;;;;;;;19.82;100.00;96105.69;5045539;28;20186;-63
2021/07/25 01:21:10;;;;;;;11.57;8.20;;;;;;;19.69;100.00;96103.84;5037258;28;20708;-62
2021/07/25 01:23:35;;;;;;;12.02;8.10;;;;;;;19.64;100.00;96094.13;5042581;28;20174;-62
2021/07/25 01:26:01;;;;;;;12.80;8.80;;;;;;;19.51;100.00;96085.09;5039758;28;20397;-62
2021/07/25 01:28:32;;;;;;;11.90;9.45;;;;;;;19.51;100.00;96066.50;5036372;28;20515;-63
2021/07/25 01:31:00;;;;;;;15.55;9.13;;;;;;;19.45;100.00;96074.88;5046179;28;20240;-62
2021/07/25 01:33:28;;;;;;;10.90;9.07;;;;;;;19.32;100.00;96081.78;5043109;28;20193;-62
2021/07/25 01:35:56;;;;;;;10.80;8.57;;;;;;;19.33;100.00;96075.41;5053357;28;20209;-62
2021/07/25 01:38:23;;;;;;;11.88;8.63;;;;;;;19.31;100.00;96069.59;5036568;28;20267;-62
2021/07/25 01:41:07;;;;;;;12.98;9.13;;;;;;;19.25;100.00;96070.00;5040243;28;20178;-62
2021/07/25 01:43:35;;;;;;;11.52;8.00;;;;;;;19.42;100.00;96075.47;5024136;28;20213;-63
2021/07/25 01:46:00;;;;;;;10.93;7.82;;;;;;;19.30;100.00;96081.28;5045155;28;20190;-62
2021/07/25 01:48:26;;;;;;;14.05;8.38;;;;;;;19.35;100.00;96102.44;5042686;28;20533;-63
2021/07/25 01:50:51;;;;;;;15.52;8.65;;;;;;;19.29;100.00;96108.16;5043901;28;20285;-62
2021/07/25 01:53:17;;;;;;;10.52;8.00;;;;;;;19.37;100.00;96107.47;5039400;28;20675;-61
2021/07/25 01:55:43;;;;;;;11.02;8.80;;;;;;;19.49;100.00;96087.28;5046165;28;20746;-65
2021/07/25 01:58:08;;;;;;;10.85;8.13;;;;;;;19.54;100.00;96081.06;5046626;28;20175;-63
2021/07/25 02:00:34;;;;;;;8.70;7.60;;;;;;;19.51;100.00;96084.31;5042216;28;20212;-63
2021/07/25 02:02:59;;;;;;;12.15;7.55;;;;;;;19.49;100.00;96083.84;5047650;28;20201;-61
2021/07/25 02:05:25;;;;;;;11.45;8.23;;;;;;;19.51;100.00;96095.75;5036709;28;20222;-62
2021/07/25 02:07:50;;;;;;;11.63;8.13;;;;;;;19.38;100.00;96112.50;5036365;28;20186;-62
2021/07/25 02:10:16;;;;;;;10.38;7.28;;;;;;;19.39;100.00;96114.03;5045490;28;20690;-62
2021/07/25 02:12:41;;;;;;;13.68;7.85;;;;;;;19.31;100.00;96127.25;5043828;28;20191;-64
2021/07/25 02:15:07;;;;;;;19.52;8.27;;;;;;;19.25;100.00;96131.09;5046568;28;20190;-62
2021/07/25 02:17:33;;;;;;;11.82;7.55;;;;;;;19.45;100.00;96122.72;5036991;28;20186;-62
2021/07/25 02:19:58;;;;;;;13.50;8.35;;;;;;;19.61;100.00;96120.53;5048880;28;20224;-62
2021/07/25 02:22:23;;;;;;;9.90;7.63;;;;;;;19.44;100.00;96118.50;5043235;28;20658;-62
2021/07/25 02:24:49;;;;;;;10.52;7.40;;;;;;;19.45;100.00;96126.19;5034526;28;20186;-63
2021/07/25 02:27:14;;;;;;;9.27;7.82;;;;;;;19.48;100.00;96119.47;5036968;28;20678;-62
2021/07/25 02:29:40;;;;;;;9.27;8.18;;;;;;;19.46;100.00;96118.97;5020736;28;20202;-62
2021/07/25 02:32:05;;;;;;;12.18;7.75;;;;;;;19.22;100.00;96118.44;5036374;28;20174;-62
2021/07/25 02:34:31;;;;;;;11.00;8.10;;;;;;;19.16;100.00;96106.34;5038957;28;20547;-62
2021/07/25 02:36:56;;;;;;;8.88;7.53;;;;;;;19.06;100.00;96120.59;5041817;28;20217;-61
2021/07/25 02:39:22;;;;;;;11.65;8.93;;;;;;;18.91;100.00;96139.50;5045009;28;20226;-62
2021/07/25 02:41:47;;;;;;;9.52;8.52;;;;;;;18.64;100.00;96129.63;5048466;28;20786;-64
2021/07/25 02:44:12;;;;;;;11.85;9.65;;;;;;;18.60;100.00;96123.34;5041482;28;20221;-62
2021/07/25 02:46:38;;;;;;;13.50;9.43;;;;;;;18.66;100.00;96143.41;5041308;28;20632;-64
2021/07/25 02:49:03;;;;;;;12.48;10.32;;;;;;;18.71;100.00;96145.19;5048610;28;20692;-63
2021/07/25 02:51:29;;;;;;;12.05;10.00;;;;;;;18.94;100.00;96142.34;5039343;28;20858;-62
2021/07/25 02:53:54;;;;;;;13.45;10.32;;;;;;;19.10;100.00;96145.50;5044207;28;20538;-62
2021/07/25 02:56:20;;;;;;;12.48;9.50;;;;;;;19.20;100.00;96141.84;5045500;28;20182;-62
2021/07/25 02:58:45;;;;;;;10.38;9.10;;;;;;;19.27;100.00;96143.03;5038681;28;20294;-65
2021/07/25 03:01:13;;;;;;;13.15;9.68;;;;;;;19.29;100.00;96140.06;5041227;28;20209;-63
2021/07/25 03:03:39;;;;;;;12.75;10.02;;;;;;;19.29;100.00;96135.53;5052537;28;20192;-63
2021/07/25 03:06:04;;;;;;;12.63;8.85;;;;;;;19.34;100.00;96132.75;5042000;28;20190;-63
2021/07/25 03:08:30;;;;;;;12.48;9.00;;;;;;;19.35;100.00;96128.22;5040636;28;20190;-61
2021/07/25 03:10:55;;;;;;;11.23;8.98;;;;;;;19.43;100.00;96131.00;5040415;28;20191;-62
2021/07/25 03:13:20;;;;;;;10.05;8.20;;;;;;;19.42;100.00;96137.38;5044395;28;20182;-61
2021/07/25 03:15:46;;;;;;;10.20;7.95;;;;;;;19.27;100.00;96136.91;5045613;28;20191;-65
2021/07/25 03:18:11;;;;;;;10.43;8.05;;;;;;;19.31;100.00;96128.06;5039356;28;20187;-62
2021/07/25 03:20:37;;;;;;;12.23;7.32;;;;;;;19.38;100.00;96128.44;5037952;28;20205;-61
2021/07/25 03:23:02;;;;;;;10.48;7.30;;;;;;;19.41;100.00;96130.50;5049443;28;20271;-62
2021/07/25 03:25:28;;;;;;;8.98;7.07;;;;;;;19.38;100.00;96125.00;5043847;28;20274;-62
2021/07/25 03:27:53;;;;;;;9.93;7.40;;;;;;;19.48;100.00;96120.28;5047465;28;20550;-62
2021/07/25 03:30:18;;;;;;;8.50;7.38;;;;;;;19.44;100.00;96115.81;5040289;28;20198;-62
2021/07/25 03:32:44;;;;;;;8.95;6.60;;;;;;;19.48;100.00;96135.44;5039580;28;20189;-62
2021/07/25 03:35:10;;;;;;;7.75;6.57;;;;;;;19.42;100.00;96139.25;5038405;28;20193;-62
2021/07/25 03:37:40;;;;;;;8.00;7.20;;;;;;;19.33;100.00;96135.75;5037185;28;20191;-62
2021/07/25 03:40:06;;;;;;;8.45;5.90;;;;;;;19.34;100.00;96138.06;5043910;28;20233;-62
2021/07/25 03:42:31;;;;;;;7.55;6.32;;;;;;;19.18;100.00;96133.38;5050786;28;20658;-63
2021/07/25 03:44:57;;;;;;;11.25;6.65;;;;;;;19.26;100.00;96143.31;5035233;28;20190;-63
2021/07/25 03:47:22;;;;;;;10.15;7.07;;;;;;;19.06;100.00;96134.66;5048794;28;20346;-64
2021/07/25 03:49:48;;;;;;;7.53;6.35;;;;;;;19.10;100.00;96129.56;5040095;28;20550;-65
2021/07/25 03:52:13;;;;;;;8.32;6.30;;;;;;;19.06;100.00;96136.53;5047036;28;20247;-62
2021/07/25 03:54:42;;;;;;;11.95;6.93;;;;;;;19.04;100.00;96134.19;5049306;28;20655;-63
2021/07/25 03:57:08;;;;;;;10.40;6.22;;;;;;;19.03;100.00;96135.25;5036997;28;20271;-63
2021/07/25 03:59:33;;;;;;;8.45;5.93;;;;;;;19.24;100.00;96148.91;5043700;28;20654;-63
2021/07/25 04:01:58;;;;;;;7.03;5.80;;;;;;;19.15;100.00;96149.91;5042162;28;20724;-63
2021/07/25 04:04:24;;;;;;;6.03;5.43;;;;;;;19.25;100.00;96149.72;5051048;28;20189;-63
2021/07/25 04:06:49;;;;;;;6.53;5.80;;;;;;;19.22;100.00;96142.34;5041902;28;20217;-65
2021/07/25 04:09:15;;;;;;;8.48;5.97;;;;;;;19.27;100.00;96142.22;5037264;28;20202;-62
2021/07/25 04:11:40;;;;;;;6.00;5.45;;;;;;;19.15;100.00;96144.59;5033047;28;20214;-63
2021/07/25 04:14:06;;;;;;;6.13;5.53;;;;;;;19.25;100.00;96141.72;5031122;28;20213;-63
2021/07/25 04:16:31;;;;;;;7.82;5.65;;;;;;;19.25;100.00;96139.06;5041602;28;20186;-63
2021/07/25 04:18:57;;;;;;;5.93;5.05;;;;;;;19.29;100.00;96142.72;5046539;28;20607;-63
2021/07/25 04:21:22;;;;;;;6.88;4.80;;;;;;;19.39;100.00;96145.19;5039982;28;20183;-62
2021/07/25 04:23:48;;;;;;;6.75;4.70;;;;;;;19.37;100.00;96148.13;5033851;28;20189;-66
2021/07/25 04:26:13;;;;;;;5.50;5.00;;;;;;;19.53;99.32;96145.97;5039395;28;20269;-62
2021/07/25 04:28:39;;;;;;;6.15;4.45;;;;;;;19.36;98.57;96151.06;5040895;28;20196;-63
2021/07/25 04:31:05;;;;;;;6.13;4.97;;;;;;;19.40;98.56;96146.72;5034141;28;20737;-65
2021/07/25 04:33:32;;;;;;;5.20;4.57;;;;;;;19.49;98.42;96145.78;5049286;28;20178;-63
2021/07/25 04:35:58;;;;;;;5.60;4.47;;;;;;;19.43;98.72;96146.16;5049296;28;20642;-63
2021/07/25 04:38:23;;;;;;;5.28;4.75;;;;;;;19.54;96.87;96152.84;5038702;28;20249;-63
2021/07/25 04:40:56;;;;;;;4.60;4.07;;;;;;;19.56;97.65;96163.94;5031521;28;20538;-66
2021/07/25 04:43:26;;;;;;;6.60;4.43;;;;;;;19.50;98.80;96159.84;5019712;28;20174;-63
2021/07/25 04:45:57;;;;;;;4.78;4.22;;;;;;;19.58;97.76;96164.44;5042824;28;20202;-63
2021/07/25 04:48:40;;;;;;;5.63;4.32;;;;;;;19.63;97.14;96155.56;5042934;28;20189;-63
2021/07/25 04:51:09;;;;;;;6.25;5.00;;;;;;;19.64;97.06;96165.91;5033586;28;20174;-63
2021/07/25 04:53:40;;;;;;;5.38;4.30;;;;;;;19.69;95.84;96165.03;5041654;28;20189;-62
2021/07/25 04:56:11;;;;;;;5.90;4.28;;;;;;;19.63;96.58;96171.53;5050671;28;20256;-63
2021/07/25 04:59:01;;;;;;;10.48;4.35;;;;;;;19.67;96.37;96170.63;5049018;28;20273;-62
2021/07/25 05:01:30;;;;;;;6.78;4.10;;;;;;;19.86;95.42;96179.25;5035846;28;20170;-63
2021/07/25 05:03:56;;;;;;;4.63;4.05;;;;;;;19.96;95.06;96178.22;5041821;28;20186;-63
2021/07/25 05:06:22;;;;;;;5.65;4.10;;;;;;;19.98;93.87;96181.38;5049989;28;20237;-63
2021/07/25 05:08:48;;;;;;;5.30;3.80;;;;;;;19.95;94.83;96173.25;5042583;28;20273;-66
2021/07/25 05:11:17;;;;;;;4.32;3.92;;;;;;;20.00;94.00;96179.22;5047473;28;20272;-63
2021/07/25 05:13:46;;;;;;;4.65;4.10;;;;;;;20.10;93.84;96178.19;5035585;28;20532;-63
2021/07/25 05:16:16;;;;;;;4.05;3.65;;;;;;;20.21;92.93;96188.31;5049185;28;20446;-63
2021/07/25 05:18:51;;;;;;;5.82;4.20;;;;;;;20.06;93.20;96183.31;5053999;28;20639;-63
2021/07/25 05:21:46;;;;;;;5.45;4.20;;;;;;;20.13;93.24;96190.88;5045996;28;20180;-63
2021/07/25 05:24:13;;;;;;;5.60;4.15;;;;;;;20.20;92.26;96186.72;5038768;28;20211;-63
2021/07/25 05:26:42;;;;;;;6.13;4.18;;;;;;;20.20;91.58;96201.91;5047277;28;20667;-63
2021/07/25 05:29:09;;;;;;;4.60;3.80;;;;;;;20.28;91.80;96201.19;5047799;28;20209;-62
2021/07/25 05:31:34;;;;;;;5.30;4.78;;;;;;;20.36;93.36;96199.69;5045608;28;20193;-62
2021/07/25 05:34:02;;;;;;;5.57;4.80;;;;;;;20.34;94.14;96206.09;5041273;28;20190;-63
2021/07/25 05:36:28;;;;;;;6.22;5.03;;;;;;;20.39;94.17;96205.22;5039517;28;20178;-62
2021/07/25 05:38:54;;;;;;;5.60;5.00;;;;;;;20.28;94.84;96212.59;5038555;28;20372;-63
2021/07/25 05:41:20;;;;;;;8.45;6.03;;;;;;;20.23;95.36;96201.28;5042887;28;20269;-65
2021/07/25 05:43:45;;;;;;;9.57;5.68;;;;;;;20.30;95.38;96207.78;5035986;28;20189;-63
2021/07/25 05:46:10;;;;;;;5.95;5.40;;;;;;;20.33;94.87;96203.78;5037482;28;20182;-63
2021/07/25 05:48:36;;;;;;;9.02;5.53;;;;;;;20.35;94.79;96196.25;5035232;28;20639;-63
2021/07/25 05:51:03;;;;;;;6.30;5.18;;;;;;;20.43;94.72;96192.06;5041227;28;20190;-63
2021/07/25 05:53:32;;;;;;;6.18;4.95;;;;;;;20.69;93.64;96185.81;5038181;28;20198;-63
2021/07/25 05:55:58;;;;;;;10.65;5.40;;;;;;;20.74;93.18;96193.66;5049119;28;20592;-63
2021/07/25 05:58:23;;;;;;;6.13;4.85;;;;;;;21.04;91.33;96197.44;5041103;28;20189;-63
2021/07/25 06:00:48;;;;;;;9.02;4.88;;;;;;;21.21;90.29;96193.28;5051153;28;20292;-63
2021/07/25 06:03:14;;;;;;;6.18;5.22;;;;;;;21.23;90.29;96194.56;5042654;28;20241;-63
2021/07/25 06:05:39;;;;;;;10.65;5.40;;;;;;;21.27;90.36;96192.84;5044923;28;20178;-63
2021/07/25 06:08:07;;;;;;;6.57;5.10;;;;;;;21.25;90.35;96197.69;5043554;28;20197;-63
2021/07/25 06:10:35;;;;;;;6.80;4.65;;;;;;;21.28;90.60;96205.09;5040251;28;20220;-62
2021/07/25 06:13:04;;;;;;;7.50;5.10;;;;;;;21.50;90.28;96201.53;5039692;28;20193;-62
2021/07/25 06:15:31;;;;;;;5.28;4.70;;;;;;;21.71;88.29;96199.84;5043403;28;20191;-62
2021/07/25 06:18:00;;;;;;;5.10;4.28;;;;;;;21.99;85.71;96203.03;5033835;28;20197;-63
2021/07/25 06:20:25;;;;;;;4.75;3.90;;;;;;;22.12;84.18;96209.34;5039173;28;20260;-62
2021/07/25 06:22:54;;;;;;;4.30;3.92;;;;;;;22.25;82.95;96211.84;5043891;28;20187;-68
2021/07/25 06:25:22;;;;;;;4.63;4.20;;;;;;;22.26;82.17;96212.63;5046585;28;20196;-63
2021/07/25 06:27:52;;;;;;;8.07;4.05;;;;;;;22.24;82.03;96210.25;5049252;28;20186;-63
2021/07/25 06:30:19;;;;;;;3.83;3.42;;;;;;;22.15;82.51;96216.72;5035270;28;20184;-62
2021/07/25 06:32:59;;;;;;;5.10;3.80;;;;;;;22.22;82.67;96209.00;5038183;28;20613;-64
2021/07/25 06:35:32;;;;;;;5.15;4.25;;;;;;;22.25;82.89;96203.81;5034921;28;20221;-62
2021/07/25 06:38:06;;;;;;;10.25;5.40;;;;;;;22.42;82.35;96200.34;5034563;28;20203;-63
2021/07/25 06:40:32;;;;;;;11.80;4.97;;;;;;;22.74;81.09;96197.16;5043795;28;20198;-62
2021/07/25 06:42:58;;;;;;;5.93;4.05;;;;;;;23.13;80.32;96196.09;5043511;28;20704;-63
2021/07/25 06:45:25;;;;;;;4.30;4.00;;;;;;;23.78;75.95;96189.50;5036921;28;20552;-63
2021/07/25 06:47:51;;;;;;;4.55;4.13;;;;;;;24.25;73.82;96187.41;5047971;28;20182;-62
2021/07/25 06:50:21;;;;;;;4.25;3.85;;;;;;;24.90;71.37;96188.56;5040524;28;20194;-63
2021/07/25 06:52:48;;;;;;;3.40;3.10;;;;;;;25.22;67.50;96193.06;5049050;28;20197;-63
2021/07/25 06:55:14;;;;;;;4.28;3.40;;;;;;;25.32;66.96;96185.66;5039420;28;20193;-63
2021/07/25 06:57:41;;;;;;;4.13;3.38;;;;;;;25.12;67.10;96196.19;5041189;28;20194;-65
2021/07/25 07:00:07;;;;;;;3.35;2.97;;;;;;;25.30;66.43;96186.00;5047348;28;20213;-64
2021/07/25 07:02:52;;;;;;;4.28;3.22;;;;;;;25.27;66.56;96190.16;5048369;28;20199;-64
2021/07/25 07:05:26;;;;;;;3.38;3.08;;;;;;;25.31;66.26;96194.81;5038952;28;20228;-64
2021/07/25 07:07:56;;;;;;;4.88;3.25;;;;;;;25.22;66.55;96182.31;5044914;28;20182;-64
2021/07/25 07:10:28;;;;;;;3.80;3.50;;;;;;;25.64;65.05;96182.09;5043068;28;20178;-65
2021/07/25 07:12:55;;;;;;;4.78;3.35;;;;;;;25.93;64.02;96181.03;5041066;28;20274;-64
2021/07/25 07:15:22;;;;;;;3.72;3.20;;;;;;;25.75;63.74;96177.81;5041102;28;20187;-64
2021/07/25 07:17:48;;;;;;;3.58;3.13;;;;;;;25.79;64.03;96176.06;5047532;28;20193;-63
2021/07/25 07:20:14;;;;;;;3.33;3.00;;;;;;;25.88;63.27;96175.91;5044495;28;20198;-63
2021/07/25 07:22:40;;;;;;;3.15;2.90;;;;;;;25.91;62.70;96176.03;5040503;28;20232;-63
2021/07/25 07:25:07;;;;;;;4.40;2.92;;;;;;;25.58;63.43;96178.06;5038545;28;20198;-63
2021/07/25 07:27:34;;;;;;;3.20;2.90;;;;;;;25.50;63.26;96178.97;5046264;28;20190;-63
2021/07/25 07:30:00;;;;;;;3.78;3.28;;;;;;;25.31;63.50;96176.84;5034676;28;20182;-64
2021/07/25 07:32:26;;;;;;;3.65;3.25;;;;;;;25.21;63.94;96175.38;5045352;28;20182;-65
2021/07/25 07:34:51;;;;;;;3.30;3.00;;;;;;;25.11;64.68;96177.72;5045128;28;20187;-64
2021/07/25 07:37:17;;;;;;;4.63;3.63;;;;;;;25.15;65.02;96179.41;5051739;28;20351;-65
2021/07/25 07:39:43;;;;;;;4.53;3.30;;;;;;;25.26;65.68;96177.84;5043509;28;20699;-64
2021/07/25 07:42:10;;;;;;;3.58;3.28;;;;;;;25.20;65.35;96167.66;5042980;28;20639;-64
2021/07/25 07:44:36;;;;;;;6.40;3.85;;;;;;;25.07;65.57;96174.16;5050596;28;20189;-64
2021/07/25 07:47:02;;;;;;;7.00;3.28;;;;;;;25.15;66.07;96170.56;5035335;28;20186;-64
2021/07/25 07:49:28;;;;;;;5.20;3.40;;;;;;;25.27;65.36;96162.53;5044504;28;20187;-63
2021/07/25 07:51:53;;;;;;;3.78;3.45;;;;;;;25.44;64.53;96161.53;5041729;28;20182;-63
2021/07/25 07:54:19;;;;;;;3.42;3.08;;;;;;;25.55;63.88;96150.00;5043542;28;21020;-62
2021/07/25 07:56:44;;;;;;;5.15;3.30;;;;;;;25.72;61.63;96150.88;5035156;28;20589;-62
2021/07/25 07:59:10;;;;;;;3.67;3.38;;;;;;;25.75;61.76;96153.66;5046382;28;20282;-63
2021/07/25 08:01:35;;;;;;;5.97;3.20;;;;;;;25.14;63.35;96159.06;5040396;28;20190;-62
2021/07/25 08:04:01;;;;;;;3.33;3.03;;;;;;;25.24;64.28;96155.16;5048226;28;20186;-63
2021/07/25 08:06:26;;;;;;;3.67;3.10;;;;;;;25.18;63.99;96161.88;5050649;28;20190;-63
2021/07/25 08:08:52;;;;;;;3.40;3.10;;;;;;;25.17;62.89;96168.34;5033582;28;20202;-62
2021/07/25 08:11:17;;;;;;;4.35;2.88;;;;;;;25.23;63.50;96173.16;5043890;28;20213;-62
2021/07/25 08:13:43;;;;;;;3.42;3.13;;;;;;;25.30;63.92;96177.19;5040156;28;20181;-62
2021/07/25 08:16:10;;;;;;;3.13;2.72;;;;;;;25.51;63.37;96181.31;5038305;28;20201;-63
2021/07/25 08:18:35;;;;;;;3.85;3.15;;;;;;;25.81;61.91;96179.16;5036508;28;20190;-63
2021/07/25 08:21:01;;;;;;;3.78;3.13;;;;;;;26.02;60.86;96177.13;5047211;28;20220;-67
2021/07/25 08:23:27;;;;;;;4.18;3.10;;;;;;;26.12;59.59;96183.13;5038386;28;20274;-64
2021/07/25 08:25:52;;;;;;;3.50;3.20;;;;;;;26.14;59.94;96187.00;5039472;28;20186;-63
2021/07/25 08:28:18;;;;;;;3.45;3.15;;;;;;;26.10;60.24;96183.47;5043886;28;20642;-63
2021/07/25 08:30:43;;;;;;;3.33;2.95;;;;;;;25.98;60.25;96184.28;5037923;28;20714;-63
2021/07/25 08:33:09;;;;;;;3.40;2.85;;;;;;;25.85;60.67;96190.03;5031997;28;20179;-63
2021/07/25 08:35:34;;;;;;;3.47;3.17;;;;;;;25.82;60.28;96186.09;5042173;28;20197;-64
2021/07/25 08:38:00;;;;;;;3.10;2.75;;;;;;;25.66;60.69;96185.22;5041947;28;20200;-69
2021/07/25 08:40:29;;;;;;;4.25;3.17;;;;;;;25.73;60.87;96184.66;5035044;28;20233;-62
2021/07/25 08:43:10;;;;;;;4.05;3.30;;;;;;;25.69;60.75;96194.53;5047529;28;20541;-61
2021/07/25 08:45:38;;;;;;;4.50;3.60;;;;;;;25.41;60.17;96195.16;5038555;28;20243;-62
2021/07/25 08:48:10;;;;;;;4.57;3.17;;;;;;;25.45;60.88;96195.28;5048665;28;20205;-62
2021/07/25 08:50:40;;;;;;;5.03;3.88;;;;;;;25.42;61.08;96196.72;5035228;28;20191;-62
2021/07/25 08:53:14;;;;;;;3.72;3.35;;;;;;;25.40;61.00;96192.84;5034723;28;20232;-62
2021/07/25 08:55:40;;;;;;;4.50;4.00;;;;;;;25.42;61.08;96187.91;5040554;28;20196;-62
2021/07/25 08:58:08;;;;;;;6.68;4.05;;;;;;;25.33;61.50;96190.72;5033262;28;20182;-64
2021/07/25 09:00:36;;;;;;;4.75;4.18;;;;;;;25.45;61.46;96193.41;5039676;28;20194;-64
2021/07/25 09:03:11;;;;;;;6.55;4.25;;;;;;;25.46;61.27;96202.22;5047149;28;20237;-69
2021/07/25 09:05:36;;;;;;;4.68;4.25;;;;;;;25.27;62.18;96200.88;5039284;28;20241;-63
2021/07/25 09:08:04;;;;;;;5.55;4.57;;;;;;;25.38;62.02;96203.13;5048887;28;20186;-68
2021/07/25 09:10:30;;;;;;;7.65;4.88;;;;;;;25.12;62.34;96203.44;5035004;28;20601;-65
2021/07/25 09:12:56;;;;;;;6.60;4.82;;;;;;;25.08;62.80;96207.88;5047127;28;20274;-63
2021/07/25 09:15:29;;;;;;;6.82;5.18;;;;;;;25.04;62.83;96207.00;5035724;28;20269;-63
2021/07/25 09:17:55;;;;;;;6.63;5.28;;;;;;;25.20;62.70;96192.59;5039953;28;20205;-64
2021/07/25 09:20:21;;;;;;;8.95;5.32;;;;;;;25.21;62.55;96188.00;5036515;28;20202;-64
2021/07/25 09:22:49;;;;;;;7.63;5.05;;;;;;;25.26;62.43;96193.16;5047362;28;20197;-62
2021/07/25 09:25:21;;;;;;;6.60;5.13;;;;;;;25.46;62.43;96192.28;5034452;28;20197;-63
2021/07/25 09:27:58;;;;;;;8.68;5.78;;;;;;;25.57;61.80;96189.94;5040687;28;20189;-62
2021/07/25 09:30:25;;;;;;;9.23;6.10;;;;;;;25.44;61.12;96191.81;5043971;28;20185;-62
2021/07/25 09:32:54;;;;;;;10.07;5.50;;;;;;;25.39;61.60;96199.31;5031672;28;20320;-63
2021/07/25 09:35:39;;;;;;;6.85;4.63;;;;;;;25.35;62.75;96206.47;5035282;28;20657;-62
2021/07/25 09:38:04;;;;;;;6.28;5.13;;;;;;;25.22;65.07;96203.78;5037606;28;20692;-70
2021/07/25 09:40:36;;;;;;;4.68;4.18;;;;;;;25.20;65.75;96206.00;5046432;28;20210;-63
2021/07/25 09:43:06;;;;;;;6.55;4.43;;;;;;;25.11;68.05;96207.25;5020861;28;20190;-67
2021/07/25 09:45:32;;;;;;;6.18;4.60;;;;;;;24.77;71.03;96219.88;5042667;28;20189;-64
2021/07/25 09:48:09;;;;;;;4.53;3.33;;;;;;;24.43;71.52;96217.53;5044666;28;20186;-64
2021/07/25 09:50:35;;;;;;;4.50;4.15;;;;;;;24.00;73.43;96224.00;5036384;28;20659;-63
2021/07/25 09:53:01;;;;;;;4.88;4.38;;;;;;;23.78;75.80;96226.19;5050608;28;20236;-63
2021/07/25 09:55:30;;;;;;;4.32;3.92;;;;;;;23.68;74.13;96222.00;5041131;28;20194;-63
2021/07/25 09:57:55;;;;;;;4.32;3.78;;;;;;;23.45;77.22;96224.13;5050343;28;20186;-62
2021/07/25 10:00:21;;;;;;;6.57;4.65;;;;;;;23.27;79.12;96219.97;5038458;28;20670;-62
2021/07/25 10:02:46;;;;;;;4.88;4.28;;;;;;;23.34;78.67;96228.28;5050595;28;20268;-62
2021/07/25 10:05:14;;;;;;;4.80;4.30;;;;;;;23.42;79.61;96226.66;5038404;28;20272;-63
2021/07/25 10:07:41;;;;;;;3.92;3.58;;;;;;;23.49;78.64;96226.97;5043807;28;20183;-63
2021/07/25 10:10:09;;;;;;;6.28;4.10;;;;;;;23.49;79.35;96235.78;5046384;28;20235;-69
2021/07/25 10:12:36;;;;;;;5.38;3.80;;;;;;;23.44;79.79;96233.25;5036979;28;20551;-65
2021/07/25 10:15:04;;;;;;;4.53;3.88;;;;;;;23.44;79.58;96240.50;5049882;28;20183;-63
2021/07/25 10:17:34;;;;;;;5.22;4.10;;;;;;;23.23;80.64;96235.09;5041413;28;20217;-63
2021/07/25 10:20:02;;;;;;;4.68;4.10;;;;;;;23.19;80.60;96236.81;5050412;28;20240;-63
2021/07/25 10:22:30;;;;;;;4.80;4.13;;;;;;;23.14;81.99;96229.75;5036097;28;20703;-64
2021/07/25 10:24:58;;;;;;;4.47;3.78;;;;;;;22.98;82.35;96235.94;5032047;28;20288;-63
2021/07/25 10:27:24;;;;;;;4.65;4.10;;;;;;;22.75;80.81;96230.81;5045460;28;20202;-63
2021/07/25 10:29:53;;;;;;;4.20;3.80;;;;;;;22.56;82.42;96233.03;5042867;28;20220;-63
2021/07/25 10:32:20;;;;;;;4.20;3.72;;;;;;;22.58;82.41;96238.81;5051326;28;20193;-63
2021/07/25 10:34:47;;;;;;;6.75;3.72;;;;;;;22.45;84.26;96233.66;5044185;28;20182;-63
2021/07/25 10:37:14;;;;;;;4.95;4.25;;;;;;;22.49;84.27;96232.72;5038048;28;20639;-63
2021/07/25 10:39:45;;;;;;;4.88;3.65;;;;;;;22.52;84.13;96228.59;5038204;28;20234;-63
2021/07/25 10:42:18;;;;;;;4.43;4.03;;;;;;;22.48;82.77;96233.03;5044409;28;20221;-63
2021/07/25 10:44:43;;;;;;;5.95;3.90;;;;;;;22.49;83.10;96238.06;5034049;28;20202;-62
2021/07/25 10:47:25;;;;;;;4.45;4.05;;;;;;;22.30;84.64;96240.25;5046791;28;20567;-67
2021/07/25 10:50:06;;;;;;;4.13;3.83;;;;;;;22.46;83.32;96233.34;5022366;28;20175;-63
2021/07/25 10:55:35;;;;;;;4.93;4.25;;;;;;;22.48;84.17;96228.47;5048288;28;20589;-63
2021/07/25 10:58:02;;;;;;;4.38;3.85;;;;;;;22.45;85.32;96231.78;5023523;28;20182;-63
2021/07/25 11:00:39;;;;;;;3.85;3.53;;;;;;;22.52;84.85;96226.72;5042982;28;20194;-65
2021/07/25 11:03:05;;;;;;;4.22;3.83;;;;;;;22.74;82.95;96231.13;5046543;28;20190;-63
2021/07/25 11:05:30;;;;;;;4.50;3.85;;;;;;;22.71;83.25;96224.53;5032875;28;20186;-63
2021/07/25 11:07:58;;;;;;;6.03;3.65;;;;;;;22.93;82.32;96234.22;5038133;28;20273;-63
2021/07/25 11:10:39;;;;;;;3.45;3.15;;;;;;;23.04;81.53;96234.69;5042780;28;20191;-64
2021/07/25 11:13:04;;;;;;;4.15;3.75;;;;;;;23.09;78.79;96232.59;5047589;28;20173;-64
2021/07/25 11:17:56;;;;;;;3.80;3.50;;;;;;;22.96;79.55;96232.81;5047890;28;20282;-63
2021/07/25 11:20:42;;;;;;;4.38;3.20;;;;;;;23.07;78.83;96237.47;5040268;28;20212;-63
2021/07/25 11:23:12;;;;;;;3.33;3.03;;;;;;;23.34;77.74;96236.31;5036379;28;20248;-69
2021/07/25 11:25:38;;;;;;;4.28;3.70;;;;;;;23.50;77.60;96239.25;5041732;28;20639;-62
2021/07/25 11:28:09;;;;;;;4.80;3.70;;;;;;;23.51;76.97;96238.94;5043378;28;20190;-62
2021/07/25 11:30:52;;;;;;;3.95;3.35;;;;;;;23.80;75.30;96243.47;5043071;28;20187;-63
2021/07/25 11:33:40;;;;;;;4.15;3.75;;;;;;;24.19;73.24;96242.28;5049041;28;20186;-64
2021/07/25 11:36:16;;;;;;;4.95;3.67;;;;;;;24.35;72.97;96253.97;5032554;28;20643;-64
2021/07/25 11:38:42;;;;;;;5.03;3.80;;;;;;;24.53;71.45;96251.16;5033646;28;20695;-64